createdAt,value
2022-11-06T00:05:49.758Z,979.81
2022-11-06T00:13:16.909Z,979.82
2022-11-06T00:20:48.017Z,979.88
2022-11-06T00:28:24.963Z,979.89
2022-11-06T00:36:04.219Z,979.8
2022-11-06T00:43:53.341Z,979.9
2022-11-06T00:51:29.100Z,979.82
2022-11-06T00:59:16.465Z,979.81
2022-11-06T01:06:57.013Z,979.8
2022-11-06T01:14:33.458Z,979.71
2022-11-06T01:22:13.812Z,979.63
2022-11-06T01:29:49.385Z,979.53
2022-11-06T01:37:26.982Z,979.39
2022-11-06T01:45:18.029Z,979.28
2022-11-06T01:53:10.165Z,979.3
2022-11-06T02:01:08.387Z,979.37
2022-11-06T02:08:52.540Z,979.37
2022-11-06T02:16:53.553Z,979.34
2022-11-06T02:25:05.283Z,979.27
2022-11-06T02:33:17.857Z,979.21
2022-11-06T02:41:19.384Z,979.14
2022-11-06T02:49:27.362Z,979.11
2022-11-06T02:57:33.084Z,979
2022-11-06T03:05:37.473Z,978.86
2022-11-06T03:13:49.297Z,978.85
2022-11-06T03:22:03.876Z,978.62
2022-11-06T03:30:29.630Z,978.51
2022-11-06T03:38:43.829Z,978.54
2022-11-06T03:47:04.691Z,978.8
2022-11-06T03:55:19.046Z,978.82
2022-11-06T04:03:22.559Z,978.79
2022-11-06T04:11:25.385Z,978.88
2022-11-06T04:19:26.992Z,978.96
2022-11-06T04:27:50.701Z,978.91
2022-11-06T04:35:52.947Z,978.78
2022-11-06T04:44:32.595Z,978.71
2022-11-06T04:52:31.035Z,978.58
2022-11-06T05:00:25.447Z,978.54
2022-11-06T05:08:12.402Z,978.37
2022-11-06T05:16:00.196Z,978.41
2022-11-06T05:23:30.297Z,978.36
2022-11-06T05:30:11.047Z,978.25
2022-11-06T05:36:48.095Z,978.12
2022-11-06T05:43:21.857Z,977.99
2022-11-06T05:49:48.311Z,977.71
2022-11-06T05:56:13.028Z,977.57
2022-11-06T06:02:44.024Z,977.36
2022-11-06T06:09:09.612Z,977.19
2022-11-06T06:16:20.275Z,977.11
2022-11-06T06:23:58.604Z,977.16
2022-11-06T06:31:32.407Z,977.07
2022-11-06T06:39:02.770Z,977.21
2022-11-06T06:46:46.288Z,977.51
2022-11-06T06:54:28.374Z,977.52
2022-11-06T07:02:13.839Z,977.63
2022-11-06T07:09:45.476Z,977.69
2022-11-06T07:17:30.203Z,977.64
2022-11-06T07:25:02.066Z,977.63
2022-11-06T07:32:47.144Z,977.38
2022-11-06T07:40:25.406Z,977.42
2022-11-06T07:48:00.473Z,977.27
2022-11-06T07:55:43.134Z,977.28
2022-11-06T08:03:16.043Z,977.17
2022-11-06T08:11:03.124Z,976.91
2022-11-06T08:18:38.766Z,976.74
2022-11-06T08:26:24.412Z,976.68
2022-11-06T08:33:53.464Z,976.69
2022-11-06T08:40:55.982Z,976.73
2022-11-06T08:47:45.950Z,976.51
2022-11-06T08:54:40.028Z,976.55
2022-11-06T09:01:54.205Z,976.44
2022-11-06T09:09:40.192Z,976.43
2022-11-06T09:17:07.188Z,976.36
2022-11-06T09:25:03.499Z,976.18
2022-11-06T09:32:55.569Z,976.05
2022-11-06T09:40:26.702Z,975.9
2022-11-06T09:48:17.675Z,975.8
2022-11-06T09:56:31.900Z,975.66
2022-11-06T10:04:36.008Z,975.63
2022-11-06T10:12:25.180Z,975.57
2022-11-06T10:20:48.745Z,975.51
2022-11-06T10:29:20.054Z,975.35
2022-11-06T10:37:32.115Z,975.33
2022-11-06T10:45:32.228Z,975.27
2022-11-06T10:53:48.002Z,975.11
2022-11-06T11:02:04.925Z,974.91
2022-11-06T11:10:01.748Z,974.68
2022-11-06T11:17:53.842Z,974.47
2022-11-06T11:26:02.165Z,974.33
2022-11-06T11:34:01.977Z,974.22
2022-11-06T11:41:30.807Z,973.98
2022-11-06T11:49:07.280Z,973.85
2022-11-06T11:57:09.795Z,973.6
2022-11-06T12:04:09.607Z,973.42
2022-11-06T12:11:51.953Z,973.58
2022-11-06T12:19:49.563Z,973.51
2022-11-06T12:28:00.996Z,973.19
2022-11-06T12:35:54.034Z,973.02
2022-11-06T12:44:08.574Z,973.01
2022-11-06T12:52:17.350Z,973.06
2022-11-06T13:00:32.151Z,972.76
2022-11-06T13:08:50.088Z,972.8
2022-11-06T13:17:06.102Z,972.69
2022-11-06T13:25:11.277Z,972.62
2022-11-06T13:33:16.709Z,972.64
2022-11-06T13:41:28.009Z,972.65
2022-11-06T13:49:28.715Z,972.52
2022-11-06T13:57:32.729Z,972.35
2022-11-06T14:05:52.090Z,972.27
2022-11-06T14:13:45.608Z,972.04
2022-11-06T14:21:54.839Z,971.81
2022-11-06T14:29:40.356Z,972.21
2022-11-06T14:37:33.536Z,972.19
2022-11-06T14:45:38.448Z,972.14
2022-11-06T14:53:42.149Z,972.16
2022-11-06T15:01:52.688Z,972.15
2022-11-06T15:10:05.098Z,972.04
2022-11-06T15:17:47.301Z,972.15
2022-11-06T15:25:50.498Z,972.1
2022-11-06T15:34:10.077Z,972.07
2022-11-06T15:42:11.276Z,972.07
2022-11-06T15:50:15.351Z,972.11
2022-11-06T15:58:14.708Z,972.09
2022-11-06T16:06:10.701Z,971.8
2022-11-06T16:13:52.822Z,971.95
2022-11-06T16:21:58.011Z,971.86
2022-11-06T16:29:57.970Z,971.88
2022-11-06T16:37:59.786Z,971.77
2022-11-06T16:45:47.633Z,971.45
2022-11-06T16:53:49.919Z,971.82
2022-11-06T17:01:48.781Z,971.9
2022-11-06T17:09:58.263Z,971.85
2022-11-06T17:17:45.806Z,972.02
2022-11-06T17:25:36.984Z,972.13
2022-11-06T17:33:20.161Z,971.95
2022-11-06T17:41:05.646Z,972.15
2022-11-06T17:48:34.511Z,972.01
2022-11-06T17:56:10.933Z,972.09
2022-11-06T18:03:47.409Z,972.09
2022-11-06T18:11:30.120Z,971.92
2022-11-06T18:19:14.709Z,971.84
2022-11-06T18:27:03.411Z,972.03
2022-11-06T18:34:37.270Z,972.19
2022-11-06T18:42:14.613Z,972.25
2022-11-06T18:49:51.721Z,972.31
2022-11-06T18:57:25.505Z,972.3
2022-11-06T19:05:17.761Z,972.43
2022-11-06T19:13:09.557Z,972.38
2022-11-06T19:20:46.802Z,972.24
2022-11-06T19:28:36.539Z,972.53
2022-11-06T19:36:26.891Z,972.55
2022-11-06T19:44:10.633Z,972.58
2022-11-06T19:52:41.037Z,972.85
2022-11-06T20:00:12.322Z,972.86
2022-11-06T20:07:58.031Z,973.02
2022-11-06T20:15:36.853Z,973.07
2022-11-06T20:23:20.038Z,973.08
2022-11-06T20:30:55.630Z,973.13
2022-11-06T20:38:37.745Z,973.11
2022-11-06T20:46:10.195Z,973.18
2022-11-06T20:53:50.999Z,973.34
2022-11-06T21:01:42.384Z,973.36
2022-11-06T21:09:29.734Z,973.47
2022-11-06T21:17:10.345Z,973.53
2022-11-06T21:24:58.256Z,973.57
2022-11-06T21:32:30.995Z,973.61
2022-11-06T21:40:11.658Z,973.64
2022-11-06T21:48:40.467Z,973.6
2022-11-06T21:55:55.466Z,973.69
2022-11-06T22:03:44.802Z,973.63
2022-11-06T22:11:32.646Z,973.6
2022-11-06T22:19:17.155Z,973.57
2022-11-06T22:27:02.748Z,973.6
2022-11-06T22:34:48.620Z,973.59
2022-11-06T22:42:39.135Z,973.62
2022-11-06T22:50:21.596Z,973.59
2022-11-06T22:58:07.654Z,973.75
2022-11-06T23:05:53.197Z,973.78
2022-11-06T23:13:37.802Z,973.84
2022-11-06T23:21:23.849Z,973.91
2022-11-06T23:29:09.137Z,974
2022-11-06T23:36:49.897Z,974.04
2022-11-06T23:44:35.576Z,974.07
2022-11-06T23:52:25.442Z,974.14
2022-11-06T23:59:56.563Z,974.22
